Babson Park, Massachusetts
Current Conditions -  °F | °C
As of 4:01 AM on Thursday 27 Nov 2014 (Local Time) from KOWD Reporting Station
Overcast Overcast  
Wind Chill: 27°   Ceiling: 3400
Heat Index: 34°   Visibility: 10mi
Dew Point: 31°   Wind: 8mph
Humidity: 89%   Direction: 310°NW
Pressure: 29.79"   Gusts: NA
Location:  42.3°N, 71.26°W
Report Text: KOWD 270901Z AUTO 31007KT 10SM FEW013 BKN034 OVC041 01/M01 A2979 RMK AO2 T00111006 $
Loading
Personal Weather Stations






























Interactive Weather Map New forecast layout! Learn more

10-Day Weather Forecast

Advertisements
Track Severe Weather on mobile